createdAt,value
2022-08-24T00:00:26.725Z,26.90
2022-08-24T00:02:32.704Z,26.90
2022-08-24T00:04:44.059Z,26.80
2022-08-24T00:06:51.247Z,26.90
2022-08-24T00:08:57.852Z,26.80
2022-08-24T00:11:01.856Z,26.80
2022-08-24T00:13:05.549Z,26.80
2022-08-24T00:15:10.193Z,26.80
2022-08-24T00:17:16.244Z,26.70
2022-08-24T00:19:22.915Z,26.60
2022-08-24T00:21:37.667Z,26.60
2022-08-24T00:23:41.546Z,26.60
2022-08-24T00:25:45.448Z,26.60
2022-08-24T00:27:49.236Z,26.60
2022-08-24T00:29:55.942Z,26.50
2022-08-24T00:32:13.968Z,26.40
2022-08-24T00:34:18.540Z,26.40
2022-08-24T00:36:22.171Z,26.30
2022-08-24T00:38:30.467Z,26.30
2022-08-24T00:40:40.304Z,26.30
2022-08-24T00:42:43.962Z,26.20
2022-08-24T00:44:47.524Z,26.20
2022-08-24T00:46:53.289Z,26.20
2022-08-24T00:49:01.566Z,26.20
2022-08-24T00:51:09.624Z,26.10
2022-08-24T00:53:17.830Z,26.00
2022-08-24T00:55:24.682Z,26.00
2022-08-24T00:57:30.784Z,26.00
2022-08-24T00:59:36.410Z,26.00
2022-08-24T01:01:44.454Z,26.00
2022-08-24T01:03:53.522Z,25.90
2022-08-24T01:06:06.381Z,25.90
2022-08-24T01:08:13.611Z,25.90
2022-08-24T01:10:28.835Z,25.80
2022-08-24T01:12:33.367Z,25.80
2022-08-24T01:14:39.993Z,25.80
2022-08-24T01:17:04.053Z,25.70
2022-08-24T01:19:16.015Z,25.70
2022-08-24T01:21:21.594Z,25.70
2022-08-24T01:23:38.942Z,25.70
2022-08-24T01:25:49.672Z,25.60
2022-08-24T01:27:55.094Z,25.50
2022-08-24T01:30:01.371Z,25.50
2022-08-24T01:32:07.391Z,25.40
2022-08-24T01:34:11.370Z,25.40
2022-08-24T01:36:20.188Z,25.30
2022-08-24T01:38:24.536Z,25.20
2022-08-24T01:40:35.668Z,25.20
2022-08-24T01:42:39.370Z,25.10
2022-08-24T01:44:44.281Z,25.10
2022-08-24T01:46:48.876Z,25.10
2022-08-24T01:48:52.603Z,25.10
2022-08-24T01:50:57.050Z,25.10
2022-08-24T01:53:05.825Z,25.10
2022-08-24T01:55:14.279Z,25.10
2022-08-24T01:57:25.467Z,25.10
2022-08-24T01:59:29.645Z,25.10
2022-08-24T02:01:36.755Z,25.10
2022-08-24T02:03:40.897Z,25.00
2022-08-24T02:05:53.002Z,25.00
2022-08-24T02:07:59.516Z,25.00
2022-08-24T02:10:05.077Z,24.90
2022-08-24T02:12:09.328Z,24.90
2022-08-24T02:14:17.365Z,24.80
2022-08-24T02:16:21.185Z,24.80
2022-08-24T02:18:27.457Z,24.70
2022-08-24T02:20:31.575Z,24.60
2022-08-24T02:22:35.442Z,24.50
2022-08-24T02:24:39.080Z,24.50
2022-08-24T02:26:42.794Z,24.40
2022-08-24T02:28:46.573Z,24.40
2022-08-24T02:30:57.490Z,24.40
2022-08-24T02:33:01.595Z,24.40
2022-08-24T02:35:07.305Z,24.30
2022-08-24T02:37:11.033Z,24.30
2022-08-24T02:39:15.788Z,24.30
2022-08-24T02:41:19.813Z,24.20
2022-08-24T02:43:23.750Z,24.10
2022-08-24T02:45:27.639Z,24.10
2022-08-24T02:47:38.765Z,24.10
2022-08-24T02:49:45.889Z,24.10
2022-08-24T02:51:53.395Z,24.00
2022-08-24T02:54:01.926Z,24.00
2022-08-24T02:56:08.780Z,24.00
2022-08-24T02:58:13.038Z,24.10
2022-08-24T03:00:19.551Z,24.00
2022-08-24T03:02:27.837Z,24.00
2022-08-24T03:04:34.146Z,24.10
2022-08-24T03:06:40.757Z,24.10
2022-08-24T03:08:56.154Z,24.10
2022-08-24T03:11:04.630Z,24.10
2022-08-24T03:13:15.176Z,24.20
2022-08-24T03:15:22.725Z,24.20
2022-08-24T03:17:26.234Z,24.10
2022-08-24T03:19:33.951Z,24.10
2022-08-24T03:21:44.218Z,24.10
2022-08-24T03:23:47.869Z,24.10
2022-08-24T03:25:55.313Z,24.10
2022-08-24T03:28:02.647Z,24.10
2022-08-24T03:30:14.195Z,24.10
2022-08-24T03:32:20.758Z,24.10
2022-08-24T03:34:24.485Z,24.00
2022-08-24T03:36:29.750Z,24.00
2022-08-24T03:38:33.436Z,24.00
2022-08-24T03:40:37.958Z,24.00
2022-08-24T03:42:46.084Z,24.00
2022-08-24T03:44:55.714Z,23.90
2022-08-24T03:46:59.294Z,23.90
2022-08-24T03:49:10.052Z,23.90
2022-08-24T03:51:14.635Z,23.90
2022-08-24T03:53:19.919Z,23.90
2022-08-24T03:55:25.764Z,23.90
2022-08-24T03:57:29.818Z,23.90
2022-08-24T03:59:33.498Z,23.90
2022-08-24T04:01:43.472Z,23.90
2022-08-24T04:03:49.341Z,23.90
2022-08-24T04:05:53.417Z,23.90
2022-08-24T04:07:58.930Z,23.80
2022-08-24T04:10:05.229Z,23.80
2022-08-24T04:12:11.211Z,23.80
2022-08-24T04:14:26.587Z,23.80
2022-08-24T04:16:33.386Z,23.80
2022-08-24T04:18:39.520Z,23.70
2022-08-24T04:20:44.881Z,23.70
2022-08-24T04:22:48.860Z,23.70
2022-08-24T04:24:53.747Z,23.80
2022-08-24T04:26:59.228Z,23.80
2022-08-24T04:29:08.585Z,23.80
2022-08-24T04:31:21.825Z,23.80
2022-08-24T04:33:29.562Z,23.80
2022-08-24T04:35:51.403Z,23.80
2022-08-24T04:37:55.721Z,23.80
2022-08-24T04:40:02.847Z,23.80
2022-08-24T04:42:09.263Z,23.80
2022-08-24T04:44:16.399Z,23.70
2022-08-24T04:46:24.146Z,23.70
2022-08-24T04:48:28.395Z,23.70
2022-08-24T04:50:35.744Z,23.60
2022-08-24T04:52:39.941Z,23.60
2022-08-24T04:54:46.178Z,23.60
2022-08-24T04:56:53.116Z,23.50
2022-08-24T04:59:39.953Z,23.50
2022-08-24T05:01:45.743Z,23.50
2022-08-24T05:03:50.528Z,23.60
2022-08-24T05:06:02.442Z,23.70
2022-08-24T05:08:09.553Z,23.80
2022-08-24T05:10:15.345Z,23.90
2022-08-24T05:12:25.004Z,24.00
2022-08-24T05:14:31.696Z,24.10
2022-08-24T05:16:38.139Z,24.10
2022-08-24T05:18:43.964Z,24.30
2022-08-24T05:20:49.084Z,24.40
2022-08-24T05:22:55.801Z,24.60
2022-08-24T05:25:05.965Z,24.70
2022-08-24T05:27:14.439Z,24.90
2022-08-24T05:29:19.328Z,25.00
2022-08-24T05:31:29.583Z,25.20
2022-08-24T05:33:38.685Z,25.30
2022-08-24T05:35:50.590Z,25.40
2022-08-24T05:37:57.402Z,25.50
2022-08-24T05:40:05.698Z,25.60
2022-08-24T05:42:09.699Z,25.70
2022-08-24T05:44:15.733Z,25.90
2022-08-24T05:46:22.630Z,26.10
2022-08-24T05:48:29.553Z,26.10
2022-08-24T05:50:59.299Z,26.20
2022-08-24T05:53:07.232Z,26.30
2022-08-24T05:55:19.395Z,26.40
2022-08-24T05:57:23.844Z,26.50
2022-08-24T05:59:28.752Z,26.70
2022-08-24T06:01:33.938Z,26.80
2022-08-24T06:03:45.040Z,26.80
2022-08-24T06:05:49.484Z,26.90
2022-08-24T06:07:54.234Z,26.90
2022-08-24T06:10:20.193Z,27.00
2022-08-24T06:12:32.745Z,27.10
2022-08-24T06:14:37.749Z,27.20
2022-08-24T06:16:45.067Z,27.30
2022-08-24T06:18:52.256Z,27.40
2022-08-24T06:21:09.330Z,27.50
2022-08-24T06:23:15.246Z,27.60
2022-08-24T06:25:59.997Z,27.70
2022-08-24T06:28:08.754Z,27.70
2022-08-24T06:30:20.908Z,27.70
2022-08-24T06:32:39.541Z,27.70
2022-08-24T06:34:55.096Z,27.80
2022-08-24T06:37:05.745Z,28.00
2022-08-24T06:39:10.152Z,28.10
2022-08-24T06:41:19.334Z,28.20
2022-08-24T06:43:31.448Z,28.20
2022-08-24T06:45:44.885Z,28.30
2022-08-24T06:47:55.086Z,28.40
2022-08-24T06:50:00.676Z,28.50
2022-08-24T06:52:06.715Z,28.70
2022-08-24T06:54:11.675Z,28.80
2022-08-24T06:56:19.792Z,28.80
2022-08-24T06:58:31.720Z,28.90
2022-08-24T07:00:38.772Z,28.90
2022-08-24T07:02:42.948Z,29.00
2022-08-24T07:04:47.382Z,29.00
2022-08-24T07:06:52.987Z,29.10
2022-08-24T07:08:59.852Z,29.30
2022-08-24T07:11:13.818Z,29.40
2022-08-24T07:13:25.468Z,29.50
2022-08-24T07:15:32.299Z,29.60
2022-08-24T07:17:45.782Z,29.60
2022-08-24T07:19:50.187Z,29.60
2022-08-24T07:22:01.773Z,29.60
2022-08-24T07:24:14.155Z,29.80
2022-08-24T07:26:22.099Z,30.00
2022-08-24T07:28:31.986Z,30.30
2022-08-24T07:30:37.930Z,30.50
2022-08-24T07:32:43.357Z,30.70
2022-08-24T07:34:50.288Z,31.00
2022-08-24T07:36:57.175Z,31.20
2022-08-24T07:39:01.435Z,31.30
2022-08-24T07:43:44.114Z,31.40
2022-08-24T07:45:56.170Z,31.30
2022-08-24T07:48:06.693Z,31.10
2022-08-24T07:50:15.208Z,30.90
2022-08-24T07:52:21.517Z,30.70
2022-08-24T07:54:29.636Z,30.60
2022-08-24T07:56:43.213Z,30.50
2022-08-24T07:58:48.889Z,30.50
2022-08-24T08:00:59.414Z,30.60
2022-08-24T08:03:07.433Z,30.60
2022-08-24T08:05:16.687Z,30.60
2022-08-24T08:07:21.206Z,30.70
2022-08-24T08:09:25.303Z,30.80
2022-08-24T08:11:29.462Z,30.90
2022-08-24T08:13:36.922Z,30.80
2022-08-24T08:15:43.660Z,30.90
2022-08-24T08:17:52.646Z,31.00
2022-08-24T08:20:03.572Z,31.00
2022-08-24T08:22:25.361Z,31.00
2022-08-24T08:24:32.846Z,31.10
2022-08-24T08:26:43.404Z,31.10
2022-08-24T08:28:48.248Z,31.40
2022-08-24T08:30:58.005Z,31.60
2022-08-24T08:33:06.031Z,31.80
2022-08-24T08:35:18.275Z,32.00
2022-08-24T08:37:23.391Z,32.00
2022-08-24T08:39:39.029Z,31.90
2022-08-24T08:42:15.434Z,31.90
2022-08-24T08:44:28.884Z,32.00
2022-08-24T08:46:44.722Z,32.30
2022-08-24T08:49:20.083Z,32.60
2022-08-24T08:51:49.310Z,32.90
2022-08-24T08:54:17.803Z,33.10
2022-08-24T08:56:24.802Z,33.10
2022-08-24T08:58:48.457Z,33.30
2022-08-24T09:01:07.786Z,33.30
2022-08-24T09:03:29.954Z,33.20
2022-08-24T09:06:03.966Z,33.20
2022-08-24T09:08:18.193Z,33.20
2022-08-24T09:10:38.998Z,33.30
2022-08-24T09:12:52.673Z,33.20
2022-08-24T09:15:38.350Z,33.40
2022-08-24T09:17:56.618Z,33.50
2022-08-24T09:20:27.297Z,33.50
2022-08-24T09:22:34.378Z,33.60
2022-08-24T09:24:52.355Z,33.70
2022-08-24T09:26:59.867Z,33.80
2022-08-24T09:29:12.053Z,33.80
2022-08-24T09:31:40.791Z,33.80
2022-08-24T09:33:50.940Z,33.80
2022-08-24T09:36:17.697Z,34.10
2022-08-24T09:38:39.207Z,34.30
2022-08-24T09:40:55.166Z,34.50
2022-08-24T09:43:37.194Z,34.80
2022-08-24T09:46:13.670Z,34.90
2022-08-24T09:48:39.821Z,34.90
2022-08-24T09:51:07.465Z,34.90
2022-08-24T09:54:05.004Z,35.10
2022-08-24T09:56:51.495Z,35.30
2022-08-24T09:59:10.457Z,35.20
2022-08-24T10:01:17.472Z,35.20
2022-08-24T10:03:38.538Z,35.30
2022-08-24T10:06:12.757Z,35.50
2022-08-24T10:08:21.528Z,35.70
2022-08-24T10:10:37.886Z,35.80
2022-08-24T10:12:55.553Z,35.50
2022-08-24T10:15:08.667Z,35.30
2022-08-24T10:17:19.915Z,35.30
2022-08-24T10:19:40.838Z,35.50
2022-08-24T10:21:54.489Z,35.60
2022-08-24T10:24:30.787Z,35.70
2022-08-24T10:26:45.301Z,35.80
2022-08-24T10:29:23.268Z,35.90
2022-08-24T10:31:35.353Z,36.00
2022-08-24T10:33:49.361Z,36.00
2022-08-24T10:36:25.985Z,35.90
2022-08-24T10:38:54.626Z,36.00
2022-08-24T10:41:07.282Z,36.20
2022-08-24T10:43:55.105Z,36.30
2022-08-24T10:46:27.581Z,36.30
2022-08-24T10:49:03.026Z,36.50
2022-08-24T10:51:15.672Z,36.60
2022-08-24T10:53:32.865Z,36.80
2022-08-24T10:55:42.656Z,36.90
2022-08-24T10:57:56.110Z,37.00
2022-08-24T11:00:08.054Z,37.20
2022-08-24T11:02:14.418Z,37.30
2022-08-24T11:04:34.833Z,37.30
2022-08-24T11:06:41.201Z,37.40
2022-08-24T11:08:57.882Z,37.40
2022-08-24T11:11:12.934Z,37.50
2022-08-24T11:13:23.875Z,37.50
2022-08-24T11:15:30.484Z,37.60
2022-08-24T11:17:36.107Z,37.80
2022-08-24T11:19:46.662Z,37.90
2022-08-24T11:22:13.376Z,37.90
2022-08-24T11:24:42.241Z,37.90
2022-08-24T11:27:09.068Z,37.90
2022-08-24T11:29:18.242Z,37.90
2022-08-24T11:32:22.888Z,37.90
2022-08-24T11:34:40.167Z,37.90
2022-08-24T11:37:09.301Z,38.00
2022-08-24T11:39:54.412Z,38.00
2022-08-24T11:42:30.016Z,38.10
2022-08-24T11:44:54.218Z,38.20
2022-08-24T11:55:47.158Z,38.80
2022-08-24T12:00:30.172Z,39.00
2022-08-24T12:03:20.206Z,39.00
2022-08-24T12:05:42.629Z,39.10
2022-08-24T12:08:07.452Z,39.20
2022-08-24T12:10:48.879Z,39.10
2022-08-24T12:13:15.532Z,39.10
2022-08-24T12:18:08.584Z,39.30
2022-08-24T12:21:12.863Z,39.50
2022-08-24T12:26:28.648Z,39.70
2022-08-24T12:45:44.911Z,39.90
2022-08-24T12:54:19.570Z,39.50
2022-08-24T12:59:50.891Z,39.10
2022-08-24T13:16:47.040Z,40.40
2022-08-24T13:19:32.984Z,40.50
2022-08-24T13:21:58.432Z,40.60
2022-08-24T13:24:54.482Z,40.70
2022-08-24T13:27:54.829Z,40.90
2022-08-24T13:30:35.906Z,40.90
2022-08-24T13:32:49.787Z,40.70
2022-08-24T13:35:09.558Z,40.70
2022-08-24T13:37:20.342Z,40.70
2022-08-24T13:39:53.503Z,41.00
2022-08-24T13:42:21.381Z,41.00
2022-08-24T13:44:40.200Z,41.10
2022-08-24T13:51:13.689Z,41.30
2022-08-24T13:54:31.671Z,41.30
2022-08-24T13:58:44.812Z,41.60
2022-08-24T14:00:51.327Z,41.80
2022-08-24T14:03:16.292Z,42.20
2022-08-24T14:08:47.398Z,42.80
2022-08-24T14:11:16.219Z,42.80
2022-08-24T14:17:19.775Z,42.90
2022-08-24T14:25:15.744Z,43.80
2022-08-24T14:27:10.688Z,43.50
2022-08-24T14:30:35.575Z,43.00
2022-08-24T14:32:44.370Z,43.30
2022-08-24T14:35:11.139Z,43.90
2022-08-24T14:37:35.177Z,43.90
2022-08-24T14:39:53.343Z,43.60
2022-08-24T14:42:51.227Z,43.00
2022-08-24T14:45:18.547Z,42.90
2022-08-24T14:47:40.469Z,43.00
2022-08-24T14:50:12.433Z,43.20
2022-08-24T14:52:40.909Z,43.30
2022-08-24T14:55:08.160Z,43.90
2022-08-24T14:57:38.594Z,44.60
2022-08-24T14:59:48.019Z,45.10
2022-08-24T15:02:04.440Z,44.60
2022-08-24T15:04:41.084Z,44.40
2022-08-24T15:06:54.042Z,44.50
2022-08-24T15:09:17.364Z,44.90
2022-08-24T15:11:36.738Z,45.30
2022-08-24T15:13:49.810Z,45.50
2022-08-24T15:18:43.351Z,44.60
2022-08-24T15:21:07.742Z,44.70
2022-08-24T15:23:20.120Z,44.90
2022-08-24T15:26:04.496Z,44.90
2022-08-24T15:28:17.881Z,44.70
2022-08-24T15:30:30.613Z,44.60
2022-08-24T15:32:53.008Z,44.30
2022-08-24T15:35:35.896Z,44.50
2022-08-24T15:37:40.288Z,44.90
2022-08-24T15:40:09.998Z,44.90
2022-08-24T15:42:19.117Z,44.40
2022-08-24T15:44:45.652Z,44.00
2022-08-24T15:46:52.985Z,43.80
2022-08-24T15:49:06.806Z,43.50
2022-08-24T15:51:18.983Z,43.30
2022-08-24T15:53:42.847Z,43.20
2022-08-24T15:56:03.292Z,43.20
2022-08-24T15:58:36.656Z,43.10
2022-08-24T16:01:18.027Z,43.00
2022-08-24T16:03:37.079Z,43.20
2022-08-24T16:05:41.201Z,43.30
2022-08-24T16:08:11.932Z,43.40
2022-08-24T16:10:17.101Z,42.90
2022-08-24T16:12:32.686Z,42.60
2022-08-24T16:14:41.169Z,42.30
2022-08-24T16:17:07.764Z,42.00
2022-08-24T16:19:20.541Z,41.50
2022-08-24T16:21:58.388Z,41.20
2022-08-24T16:24:09.404Z,41.20
2022-08-24T16:26:37.602Z,41.10
2022-08-24T16:28:44.635Z,41.00
2022-08-24T16:30:51.147Z,40.90
2022-08-24T16:33:00.438Z,40.80
2022-08-24T16:35:24.231Z,41.10
2022-08-24T16:37:39.381Z,41.40
2022-08-24T16:39:46.429Z,41.60
2022-08-24T16:41:59.666Z,41.50
2022-08-24T16:44:23.923Z,41.50
2022-08-24T16:46:39.327Z,41.80
2022-08-24T16:48:43.637Z,42.00
2022-08-24T16:50:51.579Z,42.10
2022-08-24T16:52:54.877Z,42.00
2022-08-24T16:55:04.911Z,41.90
2022-08-24T16:57:20.600Z,41.40
2022-08-24T16:59:30.859Z,40.90
2022-08-24T22:03:02.017Z,28.60
2022-08-24T22:03:40.300Z,28.30
2022-08-24T22:30:06.947Z,27.90
